createdAt,value
2022-08-24T05:31:32.279Z,3.08
2022-08-24T05:34:34.148Z,2.47
2022-08-24T05:37:37.827Z,2.45
2022-08-24T05:40:39.517Z,2.67
2022-08-24T05:43:41.585Z,2.35
2022-08-24T05:46:44.090Z,2.90
2022-08-24T05:49:46.096Z,3.08
2022-08-24T05:52:47.845Z,2.58
2022-08-24T05:55:50.335Z,2.80
2022-08-24T05:58:52.730Z,2.63
2022-08-24T06:01:54.502Z,2.47
2022-08-24T06:04:56.268Z,2.80
2022-08-24T06:07:58.280Z,2.75
2022-08-24T06:11:01.842Z,2.63
2022-08-24T06:50:12.698Z,3.42
2022-08-24T06:53:15.243Z,3.03
2022-08-24T06:56:18.102Z,2.88
2022-08-24T06:59:20.759Z,3.40
2022-08-24T07:02:22.826Z,2.70
2022-08-24T07:05:24.537Z,3.05
2022-08-24T07:08:26.500Z,2.95
2022-08-24T07:11:28.283Z,2.88
2022-08-24T07:14:30.187Z,3.00
2022-08-24T07:17:31.890Z,3.42
2022-08-24T07:20:33.916Z,3.20
2022-08-24T07:23:41.928Z,2.97
2022-08-24T07:26:44.406Z,3.60
2022-08-24T07:29:50.711Z,2.83
2022-08-24T07:33:01.757Z,3.15
2022-08-24T07:36:03.915Z,3.35
2022-08-24T07:39:08.093Z,3.58
2022-08-24T07:42:13.838Z,3.13
2022-08-24T07:45:16.832Z,3.15
2022-08-24T07:48:18.875Z,3.13
2022-08-24T07:51:20.749Z,4.35
2022-08-24T07:54:22.587Z,3.13
2022-08-24T07:57:24.971Z,3.88
2022-08-24T08:00:27.038Z,4.07
2022-08-24T08:03:29.957Z,4.10
2022-08-24T08:06:31.878Z,3.80
2022-08-24T08:09:36.763Z,3.95
2022-08-24T08:12:39.108Z,3.58
2022-08-24T08:15:41.454Z,3.03
2022-08-24T08:18:45.509Z,2.75
2022-08-24T08:22:11.127Z,2.92
2022-08-24T08:25:13.025Z,2.92
2022-08-24T08:28:25.663Z,3.10
2022-08-24T08:31:28.242Z,2.78
2022-08-24T08:34:31.508Z,2.38
2022-08-24T08:37:33.587Z,3.30
2022-08-24T08:40:55.550Z,3.28
2022-08-24T08:44:05.165Z,2.55
2022-08-24T08:47:46.926Z,2.40
2022-08-24T08:51:28.469Z,2.30
2022-08-24T08:55:01.105Z,2.30
2022-08-24T08:58:29.660Z,2.10
2022-08-24T09:02:01.682Z,2.10
2022-08-24T09:05:37.529Z,2.05
2022-08-24T09:08:52.037Z,2.85
2022-08-24T09:12:25.261Z,2.17
2022-08-24T09:16:10.447Z,2.22
2022-08-24T09:19:44.748Z,2.20
2022-08-24T09:22:48.289Z,2.22
2022-08-24T09:26:19.064Z,2.33
2022-08-24T09:29:49.514Z,2.08
2022-08-24T09:33:14.206Z,2.42
2022-08-24T09:36:31.170Z,2.30
2022-08-24T09:40:08.797Z,2.42
2022-08-24T09:43:45.818Z,2.00
2022-08-24T09:47:25.264Z,2.00
2022-08-24T09:51:00.167Z,2.25
2022-08-24T09:54:26.036Z,2.20
2022-08-24T09:58:01.499Z,2.28
2022-08-24T10:01:22.266Z,1.70
2022-08-24T10:04:50.765Z,2.05
2022-08-24T10:08:18.577Z,2.10
2022-08-24T10:11:58.072Z,2.38
2022-08-24T10:15:09.232Z,2.30
2022-08-24T10:18:41.495Z,2.05
2022-08-24T10:22:02.086Z,2.65
2022-08-24T10:25:37.396Z,2.40
2022-08-24T10:29:01.059Z,1.70
2022-08-24T10:32:42.799Z,1.73
2022-08-24T10:36:15.178Z,1.92
2022-08-24T10:40:01.834Z,2.42
2022-08-24T10:43:34.635Z,2.28
2022-08-24T10:46:48.580Z,2.05
2022-08-24T10:50:31.039Z,2.15
2022-08-24T10:53:34.504Z,2.67
2022-08-24T10:57:01.135Z,1.95
2022-08-24T11:00:22.576Z,2.33
2022-08-24T11:03:27.960Z,2.13
2022-08-24T11:06:40.459Z,2.08
2022-08-24T11:10:00.229Z,2.28
2022-08-24T11:13:23.801Z,1.92
2022-08-24T11:16:30.497Z,2.10
2022-08-24T11:19:35.099Z,2.00
2022-08-24T11:25:56.264Z,1.80
2022-08-24T11:32:01.982Z,2.63
2022-08-24T11:35:28.074Z,2.25
2022-08-24T11:38:34.880Z,2.30
2022-08-24T11:41:47.280Z,1.80
2022-08-24T11:44:59.061Z,2.30
2022-08-24T11:48:37.424Z,2.35
2022-08-24T11:52:05.017Z,2.15
2022-08-24T11:55:17.924Z,2.08
2022-08-24T11:58:49.059Z,2.22
2022-08-24T12:01:56.545Z,2.25
2022-08-24T12:05:09.604Z,1.80
2022-08-24T12:08:47.961Z,2.00
2022-08-24T12:12:18.908Z,1.98
2022-08-24T12:15:37.111Z,2.30
2022-08-24T12:19:02.673Z,1.90
2022-08-24T12:22:07.528Z,2.13
2022-08-24T12:25:32.012Z,1.80
2022-08-24T12:28:41.265Z,2.13
2022-08-24T12:31:49.260Z,2.10
2022-08-24T12:34:58.343Z,2.20
2022-08-24T12:38:12.053Z,1.73
2022-08-24T12:41:29.352Z,1.92
2022-08-24T12:44:42.517Z,1.65
2022-08-24T12:48:09.535Z,1.90
2022-08-24T12:51:51.845Z,1.77
2022-08-24T12:55:10.227Z,1.73
2022-08-24T12:58:54.374Z,2.03
2022-08-24T13:02:02.855Z,1.87
2022-08-24T13:05:15.303Z,1.75
2022-08-24T13:08:33.849Z,2.20
2022-08-24T13:11:36.002Z,2.35
2022-08-24T13:14:37.813Z,1.88
2022-08-24T13:17:42.137Z,1.98
2022-08-24T13:20:44.350Z,1.70
2022-08-24T13:23:46.201Z,1.70
2022-08-24T13:26:47.991Z,2.35
2022-08-24T13:29:54.675Z,1.70
2022-08-24T13:33:03.112Z,1.90
2022-08-24T13:36:32.520Z,2.03
2022-08-24T13:39:44.743Z,1.92
2022-08-24T13:43:10.136Z,1.77
2022-08-24T13:46:44.332Z,1.92
2022-08-24T13:50:01.986Z,1.83
2022-08-24T13:53:44.201Z,1.42
2022-08-24T13:57:22.194Z,1.60
2022-08-24T14:00:45.376Z,1.90
2022-08-24T14:04:18.253Z,1.60
2022-08-24T14:07:27.014Z,1.65
2022-08-24T14:10:53.806Z,1.90
2022-08-24T14:14:16.803Z,1.83
2022-08-24T14:17:58.361Z,2.28
2022-08-24T14:21:20.601Z,1.92
2022-08-24T14:24:27.172Z,1.73
2022-08-24T14:27:40.255Z,1.90
2022-08-24T14:30:44.706Z,1.88
2022-08-24T14:34:17.481Z,1.60
2022-08-24T14:37:26.277Z,1.92
2022-08-24T14:40:42.897Z,1.73
2022-08-24T14:44:25.156Z,1.90
2022-08-24T14:47:41.274Z,1.45
2022-08-24T14:50:58.596Z,1.50
2022-08-24T14:54:27.207Z,1.70
2022-08-24T14:57:48.397Z,1.55
2022-08-24T15:01:26.539Z,1.67
2022-08-24T15:04:39.150Z,1.60
2022-08-24T15:07:51.551Z,1.60
2022-08-24T15:11:00.383Z,1.83
2022-08-24T15:14:07.326Z,2.00
2022-08-24T15:17:13.961Z,1.55
2022-08-24T15:20:20.444Z,1.58
2022-08-24T15:24:02.028Z,1.80
2022-08-24T15:27:43.261Z,1.85
2022-08-24T15:30:57.725Z,1.60
2022-08-24T15:34:03.304Z,1.30
2022-08-24T15:37:06.427Z,1.63
2022-08-24T15:40:29.974Z,1.70
2022-08-24T15:43:34.322Z,1.80
2022-08-24T15:46:40.818Z,1.75
2022-08-24T15:49:50.620Z,1.48
2022-08-24T15:53:21.289Z,1.92
2022-08-24T15:56:35.296Z,2.03
2022-08-24T15:59:41.174Z,2.07
